createdAt,value
2017-12-31T00:00:42.649Z,0.00
2017-12-31T00:01:42.651Z,0.00
2017-12-31T00:02:42.667Z,0.00
2017-12-31T00:03:42.680Z,0.00
2017-12-31T00:04:42.697Z,0.00
2017-12-31T00:05:42.707Z,0.00
2017-12-31T00:06:42.739Z,0.00
2017-12-31T00:07:42.749Z,0.00
2017-12-31T00:08:42.769Z,0.00
2017-12-31T00:09:42.784Z,0.00
2017-12-31T00:10:42.795Z,0.00
2017-12-31T00:11:42.814Z,0.00
2017-12-31T00:12:42.825Z,0.00
2017-12-31T00:13:42.840Z,0.00
2017-12-31T00:14:42.861Z,0.00
2017-12-31T00:15:42.871Z,0.00
2017-12-31T00:16:42.897Z,0.00
2017-12-31T00:17:42.907Z,0.00
2017-12-31T00:18:42.930Z,0.00
2017-12-31T00:19:42.936Z,0.00
2017-12-31T00:20:42.966Z,0.00
2017-12-31T00:21:42.961Z,0.00
2017-12-31T00:22:42.987Z,0.00
2017-12-31T00:23:43.004Z,0.00
2017-12-31T00:24:43.017Z,0.00
2017-12-31T00:25:43.045Z,0.00
2017-12-31T00:26:43.045Z,0.00
2017-12-31T00:27:43.068Z,0.00
2017-12-31T00:28:43.077Z,0.00
2017-12-31T00:29:43.095Z,0.00
2017-12-31T00:30:43.108Z,0.00
2017-12-31T00:31:43.125Z,0.00
2017-12-31T00:32:43.158Z,0.00
2017-12-31T00:33:43.160Z,0.00
2017-12-31T00:34:43.185Z,0.00
2017-12-31T00:35:43.203Z,0.00
2017-12-31T00:36:43.207Z,0.00
2017-12-31T00:37:43.223Z,0.00
2017-12-31T00:38:43.243Z,0.00
2017-12-31T00:39:43.267Z,0.00
2017-12-31T00:40:43.279Z,0.00
2017-12-31T00:41:43.293Z,0.00
2017-12-31T00:42:43.298Z,0.00
2017-12-31T00:43:43.319Z,0.00
2017-12-31T00:44:43.335Z,0.00
2017-12-31T00:45:43.361Z,0.00
2017-12-31T00:46:43.359Z,0.00
2017-12-31T00:47:43.385Z,0.00
2017-12-31T00:48:43.403Z,0.00
2017-12-31T00:49:43.416Z,0.00
2017-12-31T00:50:43.436Z,0.00
2017-12-31T00:51:43.447Z,0.00
2017-12-31T00:52:43.473Z,0.00
2017-12-31T00:53:43.475Z,0.00
2017-12-31T00:54:43.492Z,0.00
2017-12-31T00:55:43.518Z,0.00
2017-12-31T00:56:43.529Z,0.00
2017-12-31T00:57:43.551Z,0.00
2017-12-31T00:58:43.562Z,0.00
2017-12-31T00:59:43.574Z,0.00
2017-12-31T01:00:43.606Z,0.00
2017-12-31T01:01:43.609Z,0.00
2017-12-31T01:02:43.614Z,0.00
2017-12-31T01:03:43.639Z,0.00
2017-12-31T01:04:43.662Z,0.00
2017-12-31T01:05:43.665Z,0.00
2017-12-31T01:06:43.690Z,0.00
2017-12-31T01:07:43.701Z,0.00
2017-12-31T01:08:43.733Z,0.00
2017-12-31T01:09:43.730Z,0.00
2017-12-31T01:10:43.747Z,0.00
2017-12-31T01:11:43.779Z,0.00
2017-12-31T01:12:43.785Z,0.00
2017-12-31T01:13:43.799Z,0.00
2017-12-31T01:14:43.817Z,0.00
2017-12-31T01:15:43.835Z,0.00
2017-12-31T01:16:43.850Z,0.00
2017-12-31T01:17:43.863Z,0.00
2017-12-31T01:18:43.881Z,0.00
2017-12-31T01:19:43.895Z,0.00
2017-12-31T01:20:43.911Z,0.00
2017-12-31T01:21:43.920Z,0.00
2017-12-31T01:22:43.952Z,0.00
2017-12-31T01:23:43.957Z,0.00
2017-12-31T01:24:43.983Z,0.00
2017-12-31T01:25:43.997Z,0.00
2017-12-31T01:26:44.004Z,0.00
2017-12-31T01:27:44.029Z,0.00
2017-12-31T01:28:44.091Z,0.00
2017-12-31T01:29:44.062Z,0.00
2017-12-31T01:30:44.068Z,0.00
2017-12-31T01:31:44.090Z,0.00
2017-12-31T01:32:44.103Z,0.00
2017-12-31T01:33:44.118Z,0.00
2017-12-31T01:34:44.129Z,0.00
2017-12-31T01:35:44.149Z,0.00
2017-12-31T01:36:44.172Z,0.00
2017-12-31T01:37:44.181Z,0.00
2017-12-31T01:38:44.201Z,0.00
2017-12-31T01:39:44.206Z,0.00
2017-12-31T01:40:44.231Z,0.00
2017-12-31T01:41:44.239Z,0.00
2017-12-31T01:42:44.257Z,0.00
2017-12-31T01:43:44.277Z,0.00
2017-12-31T01:44:44.288Z,0.00
2017-12-31T01:45:44.296Z,0.00
2017-12-31T01:46:44.321Z,0.00
2017-12-31T01:47:44.334Z,0.00
2017-12-31T01:48:44.358Z,0.00
2017-12-31T01:49:44.374Z,0.00
2017-12-31T01:50:44.384Z,0.00
2017-12-31T01:51:44.404Z,0.00
2017-12-31T01:52:44.409Z,0.00
2017-12-31T01:53:44.436Z,0.00
2017-12-31T01:54:44.443Z,0.00
2017-12-31T01:55:44.467Z,0.00
2017-12-31T01:56:44.480Z,0.00
2017-12-31T01:57:44.501Z,0.00
2017-12-31T01:58:44.499Z,0.00
2017-12-31T01:59:44.832Z,0.00
2017-12-31T02:00:44.530Z,0.00
2017-12-31T02:01:44.550Z,0.00
2017-12-31T02:02:44.565Z,0.00
2017-12-31T02:03:44.587Z,0.00
2017-12-31T02:04:44.614Z,0.00
2017-12-31T02:05:44.621Z,0.00
2017-12-31T02:06:44.632Z,0.00
2017-12-31T02:07:44.646Z,0.00
2017-12-31T02:08:44.670Z,0.00
2017-12-31T02:09:44.672Z,0.00
2017-12-31T02:10:44.697Z,0.00
2017-12-31T02:11:44.702Z,0.00
2017-12-31T02:12:44.727Z,0.00
2017-12-31T02:13:44.744Z,0.00
2017-12-31T02:14:44.754Z,0.00
2017-12-31T02:15:44.772Z,0.00
2017-12-31T02:16:44.785Z,0.00
2017-12-31T02:17:44.800Z,0.00
2017-12-31T02:18:44.818Z,0.00
2017-12-31T02:19:44.824Z,0.00
2017-12-31T02:20:44.855Z,0.00
2017-12-31T02:21:44.877Z,0.00
2017-12-31T02:22:44.876Z,0.00
2017-12-31T02:23:44.894Z,0.00
2017-12-31T02:24:44.906Z,0.00
2017-12-31T02:25:44.932Z,0.00
2017-12-31T02:26:44.943Z,0.00
2017-12-31T02:27:44.944Z,0.00
2017-12-31T02:28:44.970Z,0.00
2017-12-31T02:29:44.985Z,0.00
2017-12-31T02:30:44.996Z,0.00
2017-12-31T02:31:45.017Z,0.00
2017-12-31T02:32:45.034Z,0.00
2017-12-31T02:33:45.042Z,0.00
2017-12-31T02:34:45.064Z,0.00
2017-12-31T02:35:45.066Z,0.00
2017-12-31T02:36:45.107Z,0.00
2017-12-31T02:37:45.120Z,0.00
2017-12-31T02:38:45.117Z,0.00
2017-12-31T02:39:45.130Z,0.00
2017-12-31T02:40:45.148Z,0.00
2017-12-31T02:41:45.157Z,0.00
2017-12-31T02:42:45.185Z,0.00
2017-12-31T02:43:45.187Z,0.00
2017-12-31T02:44:45.219Z,0.00
2017-12-31T02:45:45.220Z,0.00
2017-12-31T02:46:45.245Z,0.00
2017-12-31T02:47:45.254Z,0.00
2017-12-31T02:48:45.269Z,0.00
2017-12-31T02:49:45.279Z,0.00
2017-12-31T02:50:45.311Z,0.00
2017-12-31T02:51:45.320Z,0.00
2017-12-31T02:52:45.337Z,0.00
2017-12-31T02:53:45.338Z,0.00
2017-12-31T02:54:45.370Z,0.00
2017-12-31T02:55:45.376Z,0.00
2017-12-31T02:56:45.395Z,0.00
2017-12-31T02:57:45.403Z,0.00
2017-12-31T02:58:45.420Z,0.00
2017-12-31T02:59:45.741Z,0.00
2017-12-31T03:00:45.457Z,0.00
2017-12-31T03:01:45.459Z,0.00
2017-12-31T03:02:45.490Z,0.00
2017-12-31T03:03:45.491Z,0.00
2017-12-31T03:04:45.515Z,0.00
2017-12-31T03:05:45.543Z,0.00
2017-12-31T03:06:45.548Z,0.00
2017-12-31T03:07:45.564Z,0.00
2017-12-31T03:08:45.573Z,0.00
2017-12-31T03:09:45.581Z,0.00
2017-12-31T03:10:45.606Z,0.00
2017-12-31T03:11:45.617Z,0.00
2017-12-31T03:12:45.643Z,0.00
2017-12-31T03:13:45.645Z,0.00
2017-12-31T03:14:45.669Z,0.00
2017-12-31T03:15:45.676Z,0.00
2017-12-31T03:16:45.699Z,0.00
2017-12-31T03:17:45.701Z,0.00
2017-12-31T03:18:45.734Z,0.00
2017-12-31T03:19:46.031Z,0.00
2017-12-31T03:20:45.758Z,0.00
2017-12-31T03:21:45.766Z,0.00
2017-12-31T03:22:45.772Z,0.00
2017-12-31T03:23:45.797Z,0.00
2017-12-31T03:24:45.821Z,0.00
2017-12-31T03:25:45.830Z,0.00
2017-12-31T03:26:45.835Z,0.00
2017-12-31T03:27:45.861Z,0.00
2017-12-31T03:28:45.886Z,0.00
2017-12-31T03:29:45.887Z,0.00
2017-12-31T03:30:45.893Z,0.00
2017-12-31T03:31:45.918Z,0.00
2017-12-31T03:32:45.922Z,0.00
2017-12-31T03:33:45.951Z,0.00
2017-12-31T03:34:46.010Z,0.00
2017-12-31T03:35:45.963Z,0.00
2017-12-31T03:36:45.994Z,0.00
2017-12-31T03:37:46.006Z,0.00
2017-12-31T03:38:46.013Z,0.00
2017-12-31T03:39:46.033Z,0.00
2017-12-31T03:40:46.045Z,0.00
2017-12-31T03:41:46.066Z,0.00
2017-12-31T03:42:46.085Z,0.00
2017-12-31T03:43:46.083Z,0.00
2017-12-31T03:44:46.109Z,0.00
2017-12-31T03:45:46.124Z,0.00
2017-12-31T03:46:46.135Z,0.00
2017-12-31T03:47:46.148Z,0.00
2017-12-31T03:48:46.165Z,0.00
2017-12-31T03:49:46.173Z,0.00
2017-12-31T03:50:46.199Z,0.00
2017-12-31T03:51:46.211Z,0.00
2017-12-31T03:52:46.217Z,0.00
2017-12-31T03:53:46.239Z,0.00
2017-12-31T03:54:46.244Z,0.00
2017-12-31T03:55:46.268Z,0.00
2017-12-31T03:56:46.273Z,0.00
2017-12-31T03:57:46.296Z,0.00
2017-12-31T03:58:46.313Z,0.00
2017-12-31T03:59:46.594Z,0.00
2017-12-31T04:00:46.338Z,0.00
2017-12-31T04:01:46.349Z,0.00
2017-12-31T04:02:46.371Z,0.00
2017-12-31T04:03:46.385Z,0.00
2017-12-31T04:04:46.395Z,0.00
2017-12-31T04:05:46.404Z,0.00
2017-12-31T04:06:46.428Z,0.00
2017-12-31T04:07:46.434Z,0.00
2017-12-31T04:08:46.466Z,0.00
2017-12-31T04:09:46.467Z,0.00
2017-12-31T04:10:46.486Z,0.00
2017-12-31T04:11:46.499Z,0.00
2017-12-31T04:12:46.522Z,0.00
2017-12-31T04:13:46.538Z,0.00
2017-12-31T04:14:46.546Z,0.00
2017-12-31T04:15:46.554Z,0.00
2017-12-31T04:16:46.569Z,0.00
2017-12-31T04:17:46.597Z,0.00
2017-12-31T04:18:46.593Z,0.00
2017-12-31T04:19:46.920Z,0.00
2017-12-31T04:20:46.623Z,0.00
2017-12-31T04:21:46.652Z,0.00
2017-12-31T04:22:46.667Z,0.00
2017-12-31T04:23:46.676Z,0.00
2017-12-31T04:24:46.694Z,0.00
2017-12-31T04:25:46.717Z,0.00
2017-12-31T04:26:46.715Z,0.00
2017-12-31T04:27:46.729Z,0.00
2017-12-31T04:28:46.752Z,0.00
2017-12-31T04:29:46.755Z,0.00
2017-12-31T04:30:46.779Z,0.00
2017-12-31T04:31:46.783Z,0.00
2017-12-31T04:32:46.816Z,0.00
2017-12-31T04:33:46.826Z,0.00
2017-12-31T04:34:46.838Z,0.00
2017-12-31T04:35:46.850Z,0.00
2017-12-31T04:36:46.865Z,0.00
2017-12-31T04:37:46.885Z,0.00
2017-12-31T04:38:46.890Z,0.00
2017-12-31T04:39:47.206Z,0.00
2017-12-31T04:40:46.919Z,0.00
2017-12-31T04:41:46.946Z,0.00
2017-12-31T04:42:46.944Z,0.00
2017-12-31T04:43:46.977Z,0.00
2017-12-31T04:44:46.981Z,0.00
2017-12-31T04:45:47.002Z,0.00
2017-12-31T04:46:47.009Z,0.00
2017-12-31T04:47:47.026Z,0.00
2017-12-31T04:48:47.040Z,0.00
2017-12-31T04:49:47.049Z,0.00
2017-12-31T04:50:47.065Z,0.00
2017-12-31T04:51:47.079Z,0.00
2017-12-31T04:52:47.097Z,0.00
2017-12-31T04:53:47.104Z,0.00
2017-12-31T04:54:47.142Z,0.00
2017-12-31T04:55:47.136Z,0.00
2017-12-31T04:56:47.150Z,0.00
2017-12-31T04:57:47.175Z,0.00
2017-12-31T04:58:47.178Z,0.00
2017-12-31T04:59:47.196Z,0.00
2017-12-31T05:00:47.216Z,0.00
2017-12-31T05:01:47.230Z,0.00
2017-12-31T05:02:47.238Z,0.00
2017-12-31T05:03:47.260Z,0.00
2017-12-31T05:04:47.516Z,0.00
2017-12-31T05:05:47.282Z,0.00
2017-12-31T05:06:47.300Z,0.00
2017-12-31T05:07:47.305Z,0.00
2017-12-31T05:08:47.337Z,0.00
2017-12-31T05:09:47.340Z,0.00
2017-12-31T05:10:47.363Z,0.00
2017-12-31T05:11:47.369Z,0.00
2017-12-31T05:12:47.386Z,0.00
2017-12-31T05:13:47.396Z,0.00
2017-12-31T05:14:47.414Z,0.00
2017-12-31T05:15:47.425Z,0.00
2017-12-31T05:16:47.439Z,0.00
2017-12-31T05:17:47.467Z,0.00
2017-12-31T05:18:47.465Z,0.00
2017-12-31T05:19:47.786Z,0.00
2017-12-31T05:20:47.495Z,0.00
2017-12-31T05:21:47.522Z,0.00
2017-12-31T05:22:47.537Z,0.00
2017-12-31T05:23:47.541Z,0.00
2017-12-31T05:24:47.560Z,0.00
2017-12-31T05:25:47.581Z,0.00
2017-12-31T05:26:47.585Z,0.00
2017-12-31T05:27:47.600Z,0.00
2017-12-31T05:28:47.605Z,0.00
2017-12-31T05:29:47.631Z,0.00
2017-12-31T05:30:47.640Z,0.00
2017-12-31T05:31:47.655Z,0.00
2017-12-31T05:32:47.667Z,0.00
2017-12-31T05:33:47.696Z,0.00
2017-12-31T05:34:47.702Z,0.00
2017-12-31T05:35:47.710Z,0.00
2017-12-31T05:36:47.732Z,0.00
2017-12-31T05:37:47.740Z,0.00
2017-12-31T05:38:47.759Z,0.00
2017-12-31T05:39:47.765Z,0.00
2017-12-31T05:40:47.796Z,0.00
2017-12-31T05:41:47.800Z,0.00
2017-12-31T05:42:47.822Z,0.00
2017-12-31T05:43:47.834Z,0.00
2017-12-31T05:44:48.168Z,0.00
2017-12-31T05:45:47.883Z,0.00
2017-12-31T05:46:47.876Z,0.00
2017-12-31T05:47:47.891Z,0.00
2017-12-31T05:48:47.905Z,0.00
2017-12-31T05:49:47.926Z,0.00
2017-12-31T05:50:47.931Z,0.00
2017-12-31T05:51:47.957Z,0.00
2017-12-31T05:52:47.962Z,0.00
2017-12-31T05:53:47.979Z,0.00
2017-12-31T05:54:47.989Z,0.00
2017-12-31T05:55:48.006Z,0.00
2017-12-31T05:56:48.020Z,0.00
2017-12-31T05:57:48.029Z,0.00
2017-12-31T05:58:48.046Z,0.00
2017-12-31T05:59:48.066Z,0.00
2017-12-31T06:00:48.076Z,0.00
2017-12-31T06:01:48.086Z,0.00
2017-12-31T06:02:48.110Z,0.00
2017-12-31T06:03:48.115Z,0.00
2017-12-31T06:04:48.441Z,0.00
2017-12-31T06:05:48.149Z,0.00
2017-12-31T06:06:48.185Z,0.00
2017-12-31T06:07:48.186Z,0.00
2017-12-31T06:08:48.197Z,0.00
2017-12-31T06:09:48.212Z,0.00
2017-12-31T06:10:48.227Z,0.00
2017-12-31T06:11:48.243Z,0.00
2017-12-31T06:12:48.251Z,0.00
2017-12-31T06:13:48.271Z,0.00
2017-12-31T06:14:48.282Z,0.00
2017-12-31T06:15:48.301Z,0.00
2017-12-31T06:16:48.312Z,0.00
2017-12-31T06:17:48.326Z,0.00
2017-12-31T06:18:48.342Z,0.00
2017-12-31T06:19:48.362Z,0.00
2017-12-31T06:20:48.371Z,0.00
2017-12-31T06:21:48.398Z,0.00
2017-12-31T06:22:48.399Z,0.00
2017-12-31T06:23:48.428Z,0.00
2017-12-31T06:24:48.427Z,0.00
2017-12-31T06:25:48.435Z,0.00
2017-12-31T06:26:48.461Z,0.00
2017-12-31T06:27:48.465Z,0.00
2017-12-31T06:28:48.497Z,0.00
2017-12-31T06:29:48.500Z,0.00
2017-12-31T06:30:48.519Z,0.00
2017-12-31T06:31:48.530Z,0.00
2017-12-31T06:32:48.548Z,0.00
2017-12-31T06:33:48.556Z,0.00
2017-12-31T06:34:48.589Z,0.00
2017-12-31T06:35:48.586Z,0.00
2017-12-31T06:36:48.613Z,0.00
2017-12-31T06:37:48.622Z,4.00
2017-12-31T06:38:48.627Z,4.00
2017-12-31T06:39:48.652Z,4.00
2017-12-31T06:40:48.657Z,0.00
2017-12-31T06:41:48.677Z,4.00
2017-12-31T06:42:48.691Z,4.00
2017-12-31T06:43:48.708Z,4.00
2017-12-31T06:44:48.723Z,8.00
2017-12-31T06:45:48.742Z,8.00
2017-12-31T06:46:48.746Z,8.00
2017-12-31T06:47:48.771Z,8.00
2017-12-31T06:48:48.777Z,12.00
2017-12-31T06:49:48.799Z,12.00
2017-12-31T06:50:48.812Z,16.00
2017-12-31T06:51:48.841Z,16.00
2017-12-31T06:52:48.842Z,16.00
2017-12-31T06:53:48.852Z,24.00
2017-12-31T06:54:49.175Z,24.00
2017-12-31T06:55:48.889Z,32.00
2017-12-31T06:56:48.906Z,36.00
2017-12-31T06:57:48.913Z,36.00
2017-12-31T06:58:48.933Z,40.00
2017-12-31T06:59:48.938Z,48.00
2017-12-31T07:00:48.970Z,56.00
2017-12-31T07:01:48.973Z,60.00
2017-12-31T07:02:48.996Z,64.00
2017-12-31T07:03:49.001Z,72.00
2017-12-31T07:04:49.022Z,76.00
2017-12-31T07:05:49.028Z,92.00
2017-12-31T07:06:49.054Z,104.00
2017-12-31T07:07:49.069Z,112.00
2017-12-31T07:08:49.080Z,120.00
2017-12-31T07:09:49.097Z,132.00
2017-12-31T07:10:49.116Z,136.00
2017-12-31T07:11:49.119Z,144.00
2017-12-31T07:12:49.145Z,152.00
2017-12-31T07:13:49.159Z,160.00
2017-12-31T07:14:49.190Z,172.00
2017-12-31T07:15:49.183Z,188.00
2017-12-31T07:16:49.202Z,208.00
2017-12-31T07:17:49.217Z,224.00
2017-12-31T07:18:49.242Z,236.00
2017-12-31T07:19:49.540Z,252.00
2017-12-31T07:20:49.273Z,268.00
2017-12-31T07:21:49.275Z,292.00
2017-12-31T07:22:49.295Z,316.00
2017-12-31T07:23:49.311Z,328.00
2017-12-31T07:24:49.329Z,340.00
2017-12-31T07:25:49.330Z,352.00
2017-12-31T07:26:49.357Z,380.00
2017-12-31T07:27:49.361Z,408.00
2017-12-31T07:28:49.387Z,444.00
2017-12-31T07:29:49.396Z,480.00
2017-12-31T07:30:49.420Z,496.00
2017-12-31T07:31:49.426Z,504.00
2017-12-31T07:32:49.451Z,504.00
2017-12-31T07:33:49.459Z,508.00
2017-12-31T07:34:49.478Z,516.00
2017-12-31T07:35:49.482Z,524.00
2017-12-31T07:36:49.508Z,528.00
2017-12-31T07:37:49.524Z,540.00
2017-12-31T07:38:49.533Z,568.00
2017-12-31T07:39:49.547Z,604.00
2017-12-31T07:40:49.571Z,636.00
2017-12-31T07:41:49.573Z,688.00
2017-12-31T07:42:49.604Z,748.00
2017-12-31T07:43:49.610Z,828.00
2017-12-31T07:44:49.636Z,888.00
2017-12-31T07:45:49.640Z,948.00
2017-12-31T07:46:49.655Z,1028.00
2017-12-31T07:47:49.674Z,1112.00
2017-12-31T07:48:49.693Z,1188.00
2017-12-31T07:49:49.694Z,1236.00
2017-12-31T07:50:49.719Z,1240.00
2017-12-31T07:51:49.732Z,1228.00
2017-12-31T07:52:49.757Z,1212.00
2017-12-31T07:53:49.758Z,1204.00
2017-12-31T07:54:49.789Z,1216.00
2017-12-31T07:55:49.823Z,1236.00
2017-12-31T07:56:49.807Z,1288.00
2017-12-31T07:57:49.815Z,1360.00
2017-12-31T07:58:49.842Z,1428.00
2017-12-31T07:59:49.847Z,1512.00
2017-12-31T08:00:49.871Z,1576.00
2017-12-31T08:01:49.880Z,1652.00
2017-12-31T08:02:49.905Z,1692.00
2017-12-31T08:03:49.918Z,1716.00
2017-12-31T08:04:49.928Z,1812.00
2017-12-31T08:05:49.938Z,1868.00
2017-12-31T08:06:49.969Z,1856.00
2017-12-31T08:07:49.981Z,1936.00
2017-12-31T08:08:49.994Z,2036.00
2017-12-31T08:09:50.017Z,2084.00
2017-12-31T08:10:50.019Z,2108.00
2017-12-31T08:11:50.044Z,2112.00
2017-12-31T08:12:50.050Z,2064.00
2017-12-31T08:13:50.077Z,1936.00
2017-12-31T08:14:50.084Z,1768.00
2017-12-31T08:15:50.108Z,1612.00
2017-12-31T08:16:50.127Z,1600.00
2017-12-31T08:17:50.142Z,1708.00
2017-12-31T08:18:50.152Z,1924.00
2017-12-31T08:19:50.472Z,1948.00
2017-12-31T08:20:50.182Z,1856.00
2017-12-31T08:21:50.191Z,1892.00
2017-12-31T08:22:50.217Z,2156.00
2017-12-31T08:23:50.229Z,2492.00
2017-12-31T08:24:50.253Z,2728.00
2017-12-31T08:25:50.276Z,2808.00
2017-12-31T08:26:50.273Z,3000.00
2017-12-31T08:27:50.299Z,3292.00
2017-12-31T08:28:50.309Z,3592.00
2017-12-31T08:29:50.325Z,3844.00
2017-12-31T08:30:50.344Z,3904.00
2017-12-31T08:31:50.356Z,3852.00
2017-12-31T08:32:50.382Z,3848.00
2017-12-31T08:33:50.389Z,3892.00
2017-12-31T08:34:50.426Z,3896.00
2017-12-31T08:35:50.421Z,3868.00
2017-12-31T08:36:50.443Z,3848.00
2017-12-31T08:37:50.447Z,3856.00
2017-12-31T08:38:50.471Z,3868.00
2017-12-31T08:39:50.489Z,3956.00
2017-12-31T08:40:50.503Z,4188.00
2017-12-31T08:41:50.530Z,4424.00
2017-12-31T08:42:50.534Z,4628.00
2017-12-31T08:43:50.554Z,4776.00
2017-12-31T08:44:50.870Z,4860.00
2017-12-31T08:45:50.586Z,4820.00
2017-12-31T08:46:50.606Z,4692.00
2017-12-31T08:47:50.609Z,4528.00
2017-12-31T08:48:50.647Z,4308.00
2017-12-31T08:49:50.656Z,4000.00
2017-12-31T08:50:50.662Z,3704.00
2017-12-31T08:51:50.695Z,3488.00
2017-12-31T08:52:50.692Z,3284.00
2017-12-31T08:53:50.713Z,3088.00
2017-12-31T08:54:50.797Z,2972.00
2017-12-31T08:55:50.745Z,2836.00
2017-12-31T08:56:50.769Z,2696.00
2017-12-31T08:57:50.780Z,2596.00
2017-12-31T08:58:50.802Z,2492.00
2017-12-31T08:59:50.821Z,2452.00
2017-12-31T09:00:50.826Z,2536.00
2017-12-31T09:01:50.854Z,2576.00
2017-12-31T09:02:50.874Z,2736.00
2017-12-31T09:03:50.877Z,3040.00
2017-12-31T09:04:50.910Z,3292.00
2017-12-31T09:05:50.913Z,3568.00
2017-12-31T09:06:50.929Z,3744.00
2017-12-31T09:07:50.961Z,3428.00
2017-12-31T09:08:51.005Z,2816.00
2017-12-31T09:09:50.981Z,2516.00
2017-12-31T09:10:51.007Z,2684.00
2017-12-31T09:11:51.022Z,2912.00
2017-12-31T09:12:51.043Z,3132.00
2017-12-31T09:13:51.054Z,3224.00
2017-12-31T09:14:51.072Z,3244.00
2017-12-31T09:15:51.094Z,3272.00
2017-12-31T09:16:51.099Z,3320.00
2017-12-31T09:17:51.121Z,3308.00
2017-12-31T09:18:51.140Z,3520.00
2017-12-31T09:19:51.151Z,3536.00
2017-12-31T09:20:51.171Z,3112.00
2017-12-31T09:21:51.179Z,2860.00
2017-12-31T09:22:51.197Z,2556.00
2017-12-31T09:23:51.221Z,2248.00
2017-12-31T09:24:51.233Z,2204.00
2017-12-31T09:25:51.248Z,2100.00
2017-12-31T09:26:51.269Z,2156.00
2017-12-31T09:27:51.286Z,1984.00
2017-12-31T09:28:51.308Z,1676.00
2017-12-31T09:29:51.613Z,1708.00
2017-12-31T09:30:51.337Z,1712.00
2017-12-31T09:31:51.359Z,1676.00
2017-12-31T09:32:51.361Z,1640.00
2017-12-31T09:33:51.383Z,1684.00
2017-12-31T09:34:51.394Z,1908.00
2017-12-31T09:35:51.419Z,2268.00
2017-12-31T09:36:51.443Z,2100.00
2017-12-31T09:37:51.454Z,2020.00
2017-12-31T09:38:51.471Z,2220.00
2017-12-31T09:39:51.482Z,2240.00
2017-12-31T09:40:51.495Z,2324.00
2017-12-31T09:41:51.504Z,2260.00
2017-12-31T09:42:51.528Z,1924.00
2017-12-31T09:43:51.546Z,1796.00
2017-12-31T09:44:51.859Z,1836.00
2017-12-31T09:45:51.581Z,2060.00
2017-12-31T09:46:51.592Z,1696.00
2017-12-31T09:47:51.610Z,1656.00
2017-12-31T09:48:51.630Z,1752.00
2017-12-31T09:49:51.643Z,2004.00
2017-12-31T09:50:51.663Z,2512.00
2017-12-31T09:51:51.674Z,3052.00
2017-12-31T09:52:51.699Z,3108.00
2017-12-31T09:53:51.715Z,3060.00
2017-12-31T09:54:51.718Z,2940.00
2017-12-31T09:55:51.753Z,2712.00
2017-12-31T09:56:51.757Z,3108.00
2017-12-31T09:57:51.777Z,3056.00
2017-12-31T09:58:51.801Z,2916.00
2017-12-31T09:59:51.799Z,2856.00
2017-12-31T10:00:51.833Z,3160.00
2017-12-31T10:01:51.840Z,3352.00
2017-12-31T10:02:51.859Z,3088.00
2017-12-31T10:03:51.884Z,3132.00
2017-12-31T10:04:51.889Z,3104.00
2017-12-31T10:05:51.910Z,3100.00
2017-12-31T10:06:51.917Z,3176.00
2017-12-31T10:07:51.940Z,3004.00
2017-12-31T10:08:51.960Z,2896.00
2017-12-31T10:09:51.989Z,2736.00
2017-12-31T10:10:51.985Z,2700.00
2017-12-31T10:11:51.999Z,2824.00
2017-12-31T10:12:52.017Z,2940.00
2017-12-31T10:13:52.038Z,2848.00
2017-12-31T10:14:52.350Z,2688.00
2017-12-31T10:15:52.073Z,2644.00
2017-12-31T10:16:52.082Z,2572.00
2017-12-31T10:17:52.102Z,2932.00
2017-12-31T10:18:52.119Z,3288.00
2017-12-31T10:19:52.132Z,3532.00
2017-12-31T10:20:52.156Z,3964.00
2017-12-31T10:21:52.160Z,3948.00
2017-12-31T10:22:52.184Z,3756.00
2017-12-31T10:23:52.201Z,3484.00
2017-12-31T10:24:52.214Z,3844.00
2017-12-31T10:25:52.236Z,4104.00
2017-12-31T10:26:52.253Z,3840.00
2017-12-31T10:27:52.266Z,3744.00
2017-12-31T10:28:52.283Z,3684.00
2017-12-31T10:29:52.299Z,3412.00
2017-12-31T10:30:52.320Z,3252.00
2017-12-31T10:31:52.340Z,3072.00
2017-12-31T10:32:52.359Z,2260.00
2017-12-31T10:33:52.369Z,2764.00
2017-12-31T10:34:52.392Z,2932.00
2017-12-31T10:35:52.398Z,3240.00
2017-12-31T10:36:52.416Z,2944.00
2017-12-31T10:37:52.425Z,2436.00
2017-12-31T10:38:52.451Z,2220.00
2017-12-31T10:39:52.768Z,2252.00
2017-12-31T10:40:52.481Z,2552.00
2017-12-31T10:41:52.516Z,2476.00
2017-12-31T10:42:52.520Z,2296.00
2017-12-31T10:43:52.540Z,2988.00
2017-12-31T10:44:52.551Z,2616.00
2017-12-31T10:45:52.560Z,2280.00
2017-12-31T10:46:52.584Z,2020.00
2017-12-31T10:47:52.609Z,1756.00
2017-12-31T10:48:52.616Z,1776.00
2017-12-31T10:49:52.643Z,2196.00
2017-12-31T10:50:52.654Z,2368.00
2017-12-31T10:51:52.667Z,2420.00
2017-12-31T10:52:52.683Z,2452.00
2017-12-31T10:53:52.694Z,2388.00
2017-12-31T10:54:52.718Z,2772.00
2017-12-31T10:55:52.736Z,2804.00
2017-12-31T10:56:52.767Z,2948.00
2017-12-31T10:57:52.777Z,2852.00
2017-12-31T10:58:52.793Z,3640.00
2017-12-31T10:59:52.808Z,4068.00
2017-12-31T11:00:52.818Z,3852.00
2017-12-31T11:01:52.834Z,4048.00
2017-12-31T11:02:52.852Z,3816.00
2017-12-31T11:03:52.874Z,4044.00
2017-12-31T11:04:52.900Z,3820.00
2017-12-31T11:05:52.909Z,2696.00
2017-12-31T11:06:52.923Z,2300.00
2017-12-31T11:07:52.940Z,2164.00
2017-12-31T11:08:52.957Z,2268.00
2017-12-31T11:09:52.974Z,2820.00
2017-12-31T11:10:52.992Z,2844.00
2017-12-31T11:11:53.005Z,2572.00
2017-12-31T11:12:53.031Z,3028.00
2017-12-31T11:13:53.037Z,3344.00
2017-12-31T11:14:53.055Z,3788.00
2017-12-31T11:15:53.081Z,3304.00
2017-12-31T11:16:53.091Z,3664.00
2017-12-31T11:17:53.123Z,4032.00
2017-12-31T11:18:53.121Z,3516.00
2017-12-31T11:19:53.144Z,4620.00
2017-12-31T11:20:53.161Z,4964.00
2017-12-31T11:21:53.189Z,5208.00
2017-12-31T11:22:53.195Z,5188.00
2017-12-31T11:23:53.216Z,5560.00
2017-12-31T11:24:53.224Z,4088.00
2017-12-31T11:25:53.251Z,3356.00
2017-12-31T11:26:53.280Z,3216.00
2017-12-31T11:27:53.281Z,3220.00
2017-12-31T11:28:53.299Z,3408.00
2017-12-31T11:29:53.313Z,3360.00
2017-12-31T11:30:53.345Z,3068.00
2017-12-31T11:31:53.350Z,2972.00
2017-12-31T11:32:53.375Z,2896.00
2017-12-31T11:33:53.378Z,3092.00
2017-12-31T11:34:53.403Z,3324.00
2017-12-31T11:35:53.423Z,3068.00
2017-12-31T11:36:53.425Z,2688.00
2017-12-31T11:37:53.446Z,2272.00
2017-12-31T11:38:53.473Z,2316.00
2017-12-31T11:39:53.489Z,2708.00
2017-12-31T11:40:53.502Z,3144.00
2017-12-31T11:41:53.530Z,3928.00
2017-12-31T11:42:53.529Z,4152.00
2017-12-31T11:43:53.556Z,3860.00
2017-12-31T11:44:53.578Z,3968.00
2017-12-31T11:45:53.588Z,3984.00
2017-12-31T11:46:53.606Z,4232.00
2017-12-31T11:47:53.624Z,4136.00
2017-12-31T11:48:53.655Z,3716.00
2017-12-31T11:49:53.664Z,2860.00
2017-12-31T11:50:53.675Z,2400.00
2017-12-31T11:51:53.706Z,2636.00
2017-12-31T11:52:53.710Z,2856.00
2017-12-31T11:53:53.733Z,3064.00
2017-12-31T11:54:53.759Z,3164.00
2017-12-31T11:55:53.757Z,3076.00
2017-12-31T11:56:53.783Z,3260.00
2017-12-31T11:57:53.804Z,3448.00
2017-12-31T11:58:53.808Z,3576.00
2017-12-31T11:59:54.142Z,3976.00
2017-12-31T12:00:53.852Z,4052.00
2017-12-31T12:01:53.863Z,3508.00
2017-12-31T12:02:53.893Z,3380.00
2017-12-31T12:03:53.902Z,3800.00
2017-12-31T12:04:53.924Z,3836.00
2017-12-31T12:05:53.937Z,3660.00
2017-12-31T12:06:53.965Z,4912.00
2017-12-31T12:07:53.968Z,4772.00
2017-12-31T12:08:54.028Z,5416.00
2017-12-31T12:09:54.013Z,5000.00
2017-12-31T12:10:54.045Z,4232.00
2017-12-31T12:11:54.043Z,3400.00
2017-12-31T12:12:54.068Z,3148.00
2017-12-31T12:13:54.083Z,2888.00
2017-12-31T12:14:54.116Z,3456.00
2017-12-31T12:15:54.114Z,4452.00
2017-12-31T12:16:54.131Z,4868.00
2017-12-31T12:17:54.146Z,4932.00
2017-12-31T12:18:54.166Z,5044.00
2017-12-31T12:19:54.490Z,5448.00
2017-12-31T12:20:54.208Z,5708.00
2017-12-31T12:21:54.224Z,6016.00
2017-12-31T12:22:54.240Z,6100.00
2017-12-31T12:23:54.266Z,5672.00
2017-12-31T12:24:54.264Z,5552.00
2017-12-31T12:25:54.286Z,5164.00
2017-12-31T12:26:54.312Z,4896.00
2017-12-31T12:27:54.316Z,4920.00
2017-12-31T12:28:54.342Z,5116.00
2017-12-31T12:29:54.363Z,4936.00
2017-12-31T12:30:54.399Z,4660.00
2017-12-31T12:31:54.393Z,4600.00
2017-12-31T12:32:54.410Z,4308.00
2017-12-31T12:33:54.432Z,4584.00
2017-12-31T12:34:54.463Z,5068.00
2017-12-31T12:35:54.468Z,5140.00
2017-12-31T12:36:54.488Z,4896.00
2017-12-31T12:37:54.517Z,4992.00
2017-12-31T12:38:54.514Z,5348.00
2017-12-31T12:39:54.840Z,5160.00
2017-12-31T12:40:54.556Z,4868.00
2017-12-31T12:41:54.579Z,4428.00
2017-12-31T12:42:54.598Z,3996.00
2017-12-31T12:43:54.610Z,3728.00
2017-12-31T12:44:54.645Z,3524.00
2017-12-31T12:45:54.656Z,3224.00